Time;durP1;ratioP1;P1;durP2;ratioP2;P2;SDS_P1;SDS_P2;PMS_P1;PMS_P2;Temp;Humidity;BMP_temperature;BMP_pressure;BME280_temperature;BME280_humidity;BME280_pressure;Samples;Min_cycle;Max_cycle;Signal;HPM_P1;HPM_P2
2022/04/28 00:00:04;;;;;;;17.50;10.70;;;;;;;11.88;100.00;101027.81;4920066;29;20507;-85
2022/04/28 00:02:33;;;;;;;14.05;9.73;;;;;;;11.90;100.00;101029.31;4920423;29;20064;-85
2022/04/28 00:05:04;;;;;;;11.95;8.40;;;;;;;11.89;100.00;101032.97;4920799;29;20039;-89
2022/04/28 00:07:29;;;;;;;12.98;8.75;;;;;;;11.73;100.00;101032.84;4923479;29;20463;-92
2022/04/28 00:09:59;;;;;;;12.25;8.75;;;;;;;11.72;100.00;101035.69;4924955;29;20040;-91
2022/04/28 00:12:28;;;;;;;16.90;8.98;;;;;;;11.83;100.00;101033.59;4925627;29;20031;-87
2022/04/28 00:14:54;;;;;;;14.60;9.18;;;;;;;11.97;99.17;101036.63;4924384;29;20040;-88
2022/04/28 00:17:19;;;;;;;15.13;9.02;;;;;;;11.79;100.00;101032.25;4922848;29;20051;-86
2022/04/28 00:19:47;;;;;;;12.60;8.65;;;;;;;11.96;99.26;101035.00;4922286;29;20032;-88
2022/04/28 00:22:16;;;;;;;12.27;8.60;;;;;;;12.21;97.46;101034.09;4924258;29;20092;-89
2022/04/28 00:24:43;;;;;;;11.48;8.07;;;;;;;12.05;98.53;101036.69;4930156;29;20067;-88
2022/04/28 00:27:12;;;;;;;15.10;8.60;;;;;;;12.22;96.58;101033.97;4923687;29;20036;-88
2022/04/28 00:29:58;;;;;;;14.43;8.82;;;;;;;12.16;96.92;101033.75;4931104;29;20525;-87
2022/04/28 00:32:24;;;;;;;16.30;8.43;;;;;;;12.23;96.96;101034.78;4933525;29;20039;-86
2022/04/28 00:34:50;;;;;;;14.52;9.23;;;;;;;12.17;97.36;101040.72;4938402;29;20036;-87
2022/04/28 00:37:18;;;;;;;12.63;8.70;;;;;;;12.19;97.62;101033.44;4938901;29;20024;-89
2022/04/28 00:39:44;;;;;;;11.98;8.25;;;;;;;12.38;96.43;101036.66;4940122;28;20040;-86
2022/04/28 00:42:14;;;;;;;15.80;9.27;;;;;;;12.17;97.38;101040.72;4940291;28;20024;-89
2022/04/28 00:44:41;;;;;;;13.70;9.02;;;;;;;12.22;96.95;101038.44;4921391;29;20040;-88
2022/04/28 00:47:08;;;;;;;17.15;9.93;;;;;;;12.35;94.98;101041.47;4904532;29;20043;-85
2022/04/28 00:52:18;;;;;;;18.90;10.27;;;;;;;11.73;96.42;101043.47;4919289;29;20032;-90
2022/04/28 00:54:45;;;;;;;19.13;10.13;;;;;;;11.48;98.43;101038.97;4919761;29;20032;-88
2022/04/28 00:57:12;;;;;;;20.23;10.65;;;;;;;11.17;100.00;101051.84;4901633;29;20048;-86
2022/04/28 00:59:39;;;;;;;15.43;9.50;;;;;;;11.39;99.22;101045.22;4921971;29;20032;-91
2022/04/28 01:02:05;;;;;;;17.40;9.57;;;;;;;11.38;99.35;101043.56;4923345;29;20044;-91
2022/04/28 01:04:32;;;;;;;14.88;9.90;;;;;;;11.40;98.86;101054.88;4921461;29;20040;-88
2022/04/28 01:06:57;;;;;;;19.88;10.18;;;;;;;11.48;98.71;101040.78;4929689;29;20027;-87
2022/04/28 01:09:25;;;;;;;17.27;10.15;;;;;;;10.99;100.00;101051.03;4928832;29;20122;-84
2022/04/28 01:11:52;;;;;;;19.13;10.57;;;;;;;10.84;100.00;101040.09;4927304;29;20067;-88
2022/04/28 01:14:24;;;;;;;13.75;10.15;;;;;;;10.93;100.00;101048.97;4923655;29;20051;-87
2022/04/28 01:17:01;;;;;;;17.75;10.93;;;;;;;10.53;100.00;101049.41;4925850;29;20039;-88
2022/04/28 01:19:33;;;;;;;15.55;10.60;;;;;;;10.41;100.00;101036.50;4925931;29;20107;-89
2022/04/28 01:22:00;;;;;;;18.20;11.90;;;;;;;10.37;100.00;101046.56;4925738;29;20043;-87
2022/04/28 01:24:26;;;;;;;18.65;11.07;;;;;;;10.27;100.00;101036.00;4925623;29;20052;-90
2022/04/28 01:26:55;;;;;;;19.58;11.15;;;;;;;10.22;100.00;101037.44;4904194;29;20040;-86
2022/04/28 01:29:21;;;;;;;18.58;11.48;;;;;;;10.05;100.00;101038.16;4922160;29;20082;-87
2022/04/28 01:31:48;;;;;;;15.82;10.18;;;;;;;10.12;100.00;101037.44;4924873;29;20083;-88
2022/04/28 01:34:14;;;;;;;22.90;10.85;;;;;;;10.30;100.00;101040.19;4922044;29;20044;-90
2022/04/28 01:36:41;;;;;;;20.05;10.82;;;;;;;10.50;100.00;101047.06;4920723;29;20107;-92
2022/04/28 01:39:10;;;;;;;16.90;10.30;;;;;;;10.76;100.00;101048.00;4919161;29;20032;-90
2022/04/28 01:41:38;;;;;;;17.63;10.48;;;;;;;10.90;100.00;101050.09;4918439;29;20055;-90
2022/04/28 01:44:11;;;;;;;15.65;9.85;;;;;;;11.03;100.00;101048.91;4922338;29;20032;-90
2022/04/28 01:46:36;;;;;;;14.03;7.33;;;;;;;11.26;100.00;101050.09;4928768;29;20024;-88
2022/04/28 01:49:25;;;;;;;14.95;9.15;;;;;;;11.13;100.00;101049.66;4916530;29;20049;-89
2022/04/28 01:55:21;;;;;;;15.15;9.25;;;;;;;10.98;100.00;101056.47;4926416;29;20048;-91
2022/04/28 01:57:53;;;;;;;16.20;9.90;;;;;;;10.80;100.00;101048.53;4933422;29;20091;-91
2022/04/28 02:00:39;;;;;;;17.65;9.70;;;;;;;10.67;100.00;101048.88;4912092;29;20036;-85
2022/04/28 02:03:08;;;;;;;14.63;9.15;;;;;;;10.83;100.00;101049.06;4927657;29;20036;-88
2022/04/28 02:05:35;;;;;;;16.65;10.60;;;;;;;10.80;100.00;101048.53;4921393;29;20040;-91
2022/04/28 02:08:03;;;;;;;14.63;9.85;;;;;;;10.79;100.00;101054.81;4909212;29;20048;-86
2022/04/28 02:10:29;;;;;;;16.55;9.82;;;;;;;10.64;100.00;101046.53;4922979;29;20040;-82
2022/04/28 02:12:56;;;;;;;19.08;10.70;;;;;;;10.66;100.00;101049.03;4932174;29;20513;-87
2022/04/28 02:15:40;;;;;;;15.23;10.43;;;;;;;10.56;100.00;101041.16;4922781;29;20175;-90
2022/04/28 02:18:28;;;;;;;15.63;10.48;;;;;;;10.50;100.00;101052.34;4921418;29;20052;-89
2022/04/28 02:20:54;;;;;;;15.30;9.68;;;;;;;10.32;100.00;101043.50;4921765;29;20051;-89
2022/04/28 02:23:21;;;;;;;16.77;9.77;;;;;;;10.28;100.00;101042.13;4922939;29;20427;-84
2022/04/28 02:25:46;;;;;;;16.83;10.07;;;;;;;10.31;100.00;101041.84;4930393;29;20028;-88
2022/04/28 02:28:12;;;;;;;17.52;10.30;;;;;;;10.17;100.00;101039.69;4931681;29;20064;-85
2022/04/28 02:30:38;;;;;;;16.00;9.80;;;;;;;10.03;100.00;101035.69;4929701;29;20047;-83
2022/04/28 02:33:10;;;;;;;14.77;9.18;;;;;;;9.93;100.00;101036.69;4937526;29;20040;-86
2022/04/28 02:35:56;;;;;;;15.17;9.03;;;;;;;10.21;100.00;101046.34;4936154;29;20040;-82
2022/04/28 02:38:22;;;;;;;16.23;9.55;;;;;;;10.17;100.00;101039.69;4934361;29;20509;-83
2022/04/28 02:40:52;;;;;;;12.70;8.85;;;;;;;10.13;100.00;101043.59;4923353;29;20098;-92
2022/04/28 02:43:19;;;;;;;15.75;9.48;;;;;;;9.93;100.00;101040.19;4921164;29;20039;-84
2022/04/28 02:45:51;;;;;;;10.38;8.35;;;;;;;10.07;100.00;101044.16;4919973;29;20032;-86
2022/04/28 02:48:20;;;;;;;14.85;8.75;;;;;;;10.10;100.00;101049.19;4922675;29;20047;-90
2022/04/28 02:50:46;;;;;;;14.57;8.52;;;;;;;10.18;100.00;101051.94;4922760;29;20044;-89
2022/04/28 02:53:13;;;;;;;12.55;8.18;;;;;;;10.42;100.00;101065.50;4922743;29;20036;-86
2022/04/28 02:55:45;;;;;;;11.70;8.13;;;;;;;10.38;100.00;101061.47;4921563;29;20060;-91
2022/04/28 02:58:13;;;;;;;20.40;8.90;;;;;;;10.20;100.00;101064.09;4922768;29;20032;-86
2022/04/28 03:00:39;;;;;;;13.35;8.65;;;;;;;10.07;100.00;101062.72;4928671;29;20024;-88
2022/04/28 03:03:06;;;;;;;13.10;8.20;;;;;;;10.20;100.00;101065.88;4928570;29;20040;-84
2022/04/28 03:10:46;;;;;;;13.18;7.97;;;;;;;10.27;100.00;101072.28;4930114;29;20053;-84
2022/04/28 03:11:21;;;;;;;14.35;7.97;;;;;;;10.34;100.00;101068.06;4948827;29;20051;-85
2022/04/28 03:13:47;;;;;;;13.02;9.05;;;;;;;10.35;100.00;101067.06;4929682;29;20040;-91
2022/04/28 03:16:15;;;;;;;17.48;8.25;;;;;;;10.21;100.00;101067.53;4946360;29;20031;-90
2022/04/28 03:19:10;;;;;;;11.57;8.05;;;;;;;10.04;100.00;101063.00;4945241;29;20056;-87
2022/04/28 03:21:39;;;;;;;16.02;8.27;;;;;;;9.91;100.00;101057.19;4949608;29;20031;-84
2022/04/28 03:24:07;;;;;;;13.05;8.23;;;;;;;9.98;100.00;101060.91;4930844;29;20054;-88
2022/04/28 03:26:33;;;;;;;16.30;9.32;;;;;;;10.02;100.00;101060.50;4924110;29;20705;-88
2022/04/28 03:28:59;;;;;;;16.45;9.50;;;;;;;9.92;100.00;101057.03;4924500;29;20051;-89
2022/04/28 03:31:26;;;;;;;11.82;8.55;;;;;;;9.77;100.00;101054.03;4925175;29;20075;-84
2022/04/28 03:34:13;;;;;;;18.05;8.77;;;;;;;9.65;100.00;101055.16;4934686;29;20135;-83
2022/04/28 03:36:51;;;;;;;16.13;8.77;;;;;;;9.70;100.00;101052.94;4931741;29;20040;-86
2022/04/28 03:39:20;;;;;;;14.35;7.53;;;;;;;9.73;100.00;101057.94;4922617;29;20049;-88
2022/04/28 03:41:45;;;;;;;12.20;7.80;;;;;;;9.71;100.00;101057.22;4931304;29;20055;-81
2022/04/28 03:44:11;;;;;;;13.90;8.63;;;;;;;9.54;100.00;101055.34;4932236;29;20036;-82
2022/04/28 03:46:40;;;;;;;14.00;7.90;;;;;;;9.53;100.00;101064.25;4931683;29;20036;-89
2022/04/28 03:49:06;;;;;;;14.70;8.15;;;;;;;9.34;100.00;101059.00;4919833;29;20444;-90
2022/04/28 03:51:32;;;;;;;14.32;7.75;;;;;;;9.14;100.00;101067.91;4889433;29;20043;-88
2022/04/28 03:54:00;;;;;;;14.10;8.45;;;;;;;9.16;100.00;101064.16;4920599;29;20024;-89
2022/04/28 03:56:30;;;;;;;11.75;7.82;;;;;;;9.22;100.00;101068.03;4919837;29;20570;-88
2022/04/28 03:59:02;;;;;;;13.18;7.85;;;;;;;9.31;100.00;101069.88;4919533;29;20059;-87
2022/04/28 04:01:31;;;;;;;13.80;8.10;;;;;;;9.27;100.00;101076.41;4919999;29;20032;-87
2022/04/28 04:04:06;;;;;;;13.10;7.35;;;;;;;9.42;100.00;101074.97;4921849;29;20025;-85
2022/04/28 04:06:36;;;;;;;11.68;6.97;;;;;;;9.54;100.00;101087.09;4922421;29;20036;-87
2022/04/28 04:09:20;;;;;;;11.85;7.60;;;;;;;9.34;100.00;101088.09;4922074;29;20498;-92
2022/04/28 04:11:45;;;;;;;10.50;7.57;;;;;;;9.51;100.00;101086.53;4919715;29;20128;-87
2022/04/28 04:14:14;;;;;;;15.05;8.00;;;;;;;9.74;100.00;101090.53;4918830;29;20036;-87
2022/04/28 04:16:42;;;;;;;14.38;8.00;;;;;;;9.84;100.00;101089.53;4919057;29;20488;-89
2022/04/28 04:19:12;;;;;;;14.93;8.23;;;;;;;9.94;100.00;101091.31;4918344;29;20410;-92
2022/04/28 04:21:49;;;;;;;10.98;7.68;;;;;;;9.76;100.00;101092.06;4920117;29;20127;-82
2022/04/28 04:24:15;;;;;;;13.70;9.57;;;;;;;9.80;100.00;101088.16;4918844;29;20530;-87
2022/04/28 04:26:42;;;;;;;11.77;7.82;;;;;;;10.08;100.00;101098.78;4901808;29;20120;-89
2022/04/28 04:29:13;;;;;;;19.85;8.93;;;;;;;9.90;100.00;101095.22;4917449;29;20044;-89
2022/04/28 04:32:17;;;;;;;21.08;8.45;;;;;;;10.07;100.00;101110.38;4932729;29;20046;-88
2022/04/28 04:34:55;;;;;;;15.57;9.40;;;;;;;10.20;100.00;101102.97;4919606;29;20447;-85
2022/04/28 04:37:26;;;;;;;21.25;9.00;;;;;;;10.30;100.00;101106.41;4918231;29;20139;-88
2022/04/28 04:39:53;;;;;;;21.98;9.50;;;;;;;10.29;100.00;101104.75;4920815;29;20051;-87
2022/04/28 04:42:18;;;;;;;17.45;9.45;;;;;;;10.16;100.00;101112.19;4920970;29;20392;-87
2022/04/28 04:44:44;;;;;;;15.25;9.93;;;;;;;10.13;100.00;101112.44;4919138;29;20123;-82
2022/04/28 04:47:17;;;;;;;19.40;9.57;;;;;;;10.34;100.00;101116.56;4918085;29;20123;-84
2022/04/28 04:50:17;;;;;;;21.63;9.75;;;;;;;10.26;100.00;101115.63;4919239;29;20048;-90
2022/04/28 04:53:18;;;;;;;21.50;9.50;;;;;;;9.84;100.00;101113.34;4916137;29;20075;-90
2022/04/28 04:55:44;;;;;;;22.83;9.38;;;;;;;9.89;100.00;101110.28;4922090;29;20094;-89
2022/04/28 04:58:10;;;;;;;15.57;9.48;;;;;;;9.72;100.00;101118.94;4922904;29;20032;-89
2022/04/28 05:00:36;;;;;;;16.33;9.70;;;;;;;9.76;100.00;101121.19;4920372;29;20056;-88
2022/04/28 05:03:21;;;;;;;13.20;8.95;;;;;;;9.57;100.00;101121.22;4919059;29;20052;-89
2022/04/28 05:06:08;;;;;;;12.23;9.32;;;;;;;9.58;100.00;101117.56;4914583;29;20037;-88
2022/04/28 05:08:38;;;;;;;25.45;9.75;;;;;;;9.69;100.00;101125.38;4916560;29;20044;-89
2022/04/28 05:11:09;;;;;;;17.05;9.48;;;;;;;9.70;100.00;101120.91;4918021;29;20403;-90
2022/04/28 05:13:40;;;;;;;12.38;8.70;;;;;;;9.99;100.00;101126.13;4916861;29;20555;-89
2022/04/28 05:16:09;;;;;;;17.88;8.85;;;;;;;10.14;100.00;101122.91;4901038;29;20046;-87
2022/04/28 05:19:01;;;;;;;11.57;6.95;;;;;;;10.33;100.00;101130.81;4920562;29;20017;-87
2022/04/28 05:21:26;;;;;;;13.88;9.57;;;;;;;10.59;100.00;101136.25;4937473;29;20072;-88
2022/04/28 05:24:24;;;;;;;16.95;9.98;;;;;;;10.90;100.00;101134.16;4938418;29;20064;-86
2022/04/28 05:27:19;;;;;;;13.90;10.15;;;;;;;10.99;100.00;101143.84;4905491;29;20146;-88
2022/04/28 05:29:57;;;;;;;16.35;9.65;;;;;;;11.32;98.88;101142.34;4940410;28;20032;-85
2022/04/28 05:32:54;;;;;;;13.60;9.88;;;;;;;11.40;98.12;101142.44;4928396;29;20104;-88
2022/04/28 05:35:59;;;;;;;21.08;9.73;;;;;;;11.30;97.54;101152.31;4922919;29;20066;-87
2022/04/28 05:38:24;;;;;;;19.05;10.35;;;;;;;11.49;96.32;101141.53;4928561;29;20040;-88
2022/04/28 05:40:50;;;;;;;12.40;9.25;;;;;;;12.05;92.09;101140.31;4921157;29;20036;-86
2022/04/28 05:46:00;;;;;;;15.93;9.75;;;;;;;11.93;91.43;101149.53;4921517;29;20096;-87
2022/04/28 05:48:26;;;;;;;16.48;9.90;;;;;;;12.00;92.17;101147.94;4921242;29;20048;-87
2022/04/28 05:50:58;;;;;;;13.77;8.77;;;;;;;12.05;91.90;101157.09;4921402;29;20111;-90
2022/04/28 05:53:26;;;;;;;15.77;8.50;;;;;;;12.18;91.44;101154.00;4912622;29;20155;-91
2022/04/28 05:55:59;;;;;;;13.93;9.00;;;;;;;13.02;86.61;101160.22;4924210;29;20036;-90
2022/04/28 05:58:36;;;;;;;15.63;8.73;;;;;;;13.73;80.53;101167.63;4905852;29;20044;-88
2022/04/28 06:01:28;;;;;;;12.57;7.78;;;;;;;13.74;80.20;101172.81;4901074;29;20103;-90
2022/04/28 06:03:56;;;;;;;14.10;8.30;;;;;;;12.60;88.14;101175.31;4905268;29;20048;-89
2022/04/28 06:06:22;;;;;;;13.27;8.75;;;;;;;13.05;86.93;101175.00;4920779;29;20043;-90
2022/04/28 06:08:55;;;;;;;15.25;9.00;;;;;;;12.75;86.78;101176.41;4920137;29;20032;-92
2022/04/28 06:11:20;;;;;;;17.23;8.52;;;;;;;12.61;88.37;101180.50;4905496;29;20044;-87
2022/04/28 06:13:47;;;;;;;14.73;7.95;;;;;;;13.15;86.17;101187.22;4919448;29;20036;-87
2022/04/28 06:16:51;;;;;;;19.60;8.43;;;;;;;13.50;82.93;101195.91;4920445;29;20107;-88
2022/04/28 06:19:23;;;;;;;15.63;8.18;;;;;;;13.81;82.20;101191.63;4919204;29;20131;-87
2022/04/28 06:22:24;;;;;;;13.40;8.23;;;;;;;14.47;77.55;101189.56;4924899;29;20044;-90
2022/04/28 06:24:54;;;;;;;16.17;8.10;;;;;;;14.96;76.61;101192.88;4918544;29;20047;-89
2022/04/28 06:27:22;;;;;;;13.85;7.75;;;;;;;15.87;69.38;101206.34;4918538;29;20051;-88
2022/04/28 06:29:50;;;;;;;11.98;7.15;;;;;;;15.39;73.23;101212.00;4919577;29;20036;-90
2022/04/28 06:32:18;;;;;;;17.27;7.65;;;;;;;15.43;71.47;101216.00;4918884;29;20487;-88
2022/04/28 06:35:02;;;;;;;18.10;8.07;;;;;;;15.44;72.48;101217.66;4920414;29;20051;-90
2022/04/28 06:37:31;;;;;;;19.67;7.53;;;;;;;16.47;69.09;101219.63;4918719;29;20673;-88
2022/04/28 06:40:01;;;;;;;12.05;7.22;;;;;;;15.67;70.64;101213.19;4919095;29;20048;-89
2022/04/28 06:42:29;;;;;;;12.05;7.13;;;;;;;15.15;74.38;101218.31;4920501;29;20119;-90
2022/04/28 06:45:14;;;;;;;13.95;7.65;;;;;;;15.94;71.08;101217.97;4919642;29;20115;-90
2022/04/28 06:47:57;;;;;;;14.88;8.20;;;;;;;15.58;72.59;101219.56;4920844;29;20059;-86
2022/04/28 06:50:38;;;;;;;26.85;7.63;;;;;;;16.11;70.33;101220.53;4924711;29;20040;-85
2022/04/28 06:53:33;;;;;;;16.02;8.02;;;;;;;16.17;69.21;101220.63;4916511;29;20035;-89
2022/04/28 06:56:05;;;;;;;16.50;8.10;;;;;;;15.80;70.94;101228.63;4925363;29;20040;-89
2022/04/28 06:58:38;;;;;;;12.57;7.70;;;;;;;16.80;68.64;101227.34;4906509;29;20047;-90
2022/04/28 07:01:09;;;;;;;16.45;7.60;;;;;;;17.43;65.67;101234.75;4925201;29;20091;-91
2022/04/28 07:03:40;;;;;;;11.27;7.22;;;;;;;17.43;64.75;101240.91;4912550;29;20028;-90
2022/04/28 07:06:06;;;;;;;14.98;7.18;;;;;;;17.76;61.58;101233.28;4932307;29;20052;-91
2022/04/28 07:08:32;;;;;;;12.02;6.60;;;;;;;18.72;58.21;101235.28;4908531;29;20127;-92
2022/04/28 07:10:59;;;;;;;14.00;6.93;;;;;;;18.92;57.63;101244.28;4917477;29;20039;-87
2022/04/28 07:13:26;;;;;;;14.98;6.63;;;;;;;19.19;57.68;101249.78;4928300;29;20040;-90
2022/04/28 07:15:52;;;;;;;15.00;7.65;;;;;;;18.97;56.56;101252.56;4926617;29;20048;-92
2022/04/28 07:18:23;;;;;;;16.90;7.57;;;;;;;18.99;57.62;101244.31;4927370;29;20044;-91
2022/04/28 07:20:51;;;;;;;15.07;7.80;;;;;;;17.76;61.19;101246.69;4922356;29;20504;-90
2022/04/28 07:23:17;;;;;;;21.98;8.95;;;;;;;18.88;58.61;101253.75;4923806;29;20092;-89
2022/04/28 07:25:42;;;;;;;12.63;7.20;;;;;;;19.06;57.51;101258.59;4922578;29;20119;-89
2022/04/28 07:28:08;;;;;;;17.63;7.45;;;;;;;18.35;61.01;101262.47;4922246;29;20036;-88
2022/04/28 07:30:53;;;;;;;17.20;7.07;;;;;;;18.45;60.24;101255.72;4923033;29;20527;-92
2022/04/28 07:33:37;;;;;;;11.70;7.43;;;;;;;19.01;58.44;101259.19;4926838;29;20050;-91
2022/04/28 07:36:21;;;;;;;17.10;9.73;;;;;;;18.20;62.00;101261.69;4931395;29;20039;-87
2022/04/28 07:39:10;;;;;;;14.25;10.20;;;;;;;18.27;60.77;101270.63;4923019;29;20117;-89
2022/04/28 07:41:58;;;;;;;;;;;;;;;18.98;59.40;101278.41;4912403;29;20064;-89
2022/04/28 07:44:24;;;;;;;15.10;9.70;;;;;;;18.59;60.73;101272.78;4925553;29;19922;-88
2022/04/28 07:46:50;;;;;;;16.15;10.52;;;;;;;19.42;59.41;101269.13;4913277;29;20040;-89
2022/04/28 07:49:18;;;;;;;20.45;8.75;;;;;;;19.10;59.84;101268.75;4926590;29;20072;-91
2022/04/28 07:51:43;;;;;;;16.40;10.10;;;;;;;18.75;60.67;101268.97;4927129;29;20095;-89
2022/04/28 07:54:12;;;;;;;19.88;11.13;;;;;;;19.76;57.05;101268.16;4909103;29;20063;-89
2022/04/28 07:56:38;;;;;;;22.17;10.75;;;;;;;20.45;53.75;101280.25;4924237;29;20040;-89
2022/04/28 07:59:03;;;;;;;25.40;10.68;;;;;;;19.97;55.73;101281.47;4943887;29;20031;-88
2022/04/28 08:01:55;;;;;;;19.48;10.77;;;;;;;19.19;57.06;101277.47;4945262;29;20071;-91
2022/04/28 08:04:22;;;;;;;19.52;12.18;;;;;;;18.19;61.49;101279.69;4897056;29;20048;-90
2022/04/28 08:06:56;;;;;;;19.80;11.50;;;;;;;18.52;61.70;101277.28;4914140;29;20131;-89
2022/04/28 08:09:23;;;;;;;21.60;11.80;;;;;;;18.49;61.00;101272.28;4923240;29;20047;-91
2022/04/28 08:11:50;;;;;;;24.17;12.93;;;;;;;18.32;62.56;101268.22;4927356;29;20048;-90
2022/04/28 08:14:16;;;;;;;20.38;12.00;;;;;;;18.71;62.97;101265.84;4905038;29;20040;-89
2022/04/28 08:16:46;;;;;;;25.58;12.40;;;;;;;18.90;61.89;101273.19;4888291;29;20076;-89
2022/04/28 08:19:12;;;;;;;22.13;12.05;;;;;;;19.20;58.25;101272.91;4918493;29;20416;-87
2022/04/28 08:21:50;;;;;;;23.35;12.05;;;;;;;18.82;59.49;101270.69;4938745;29;20040;-88
2022/04/28 08:24:17;;;;;;;23.17;11.82;;;;;;;18.91;59.09;101274.03;4939626;29;20039;-87
2022/04/28 08:26:45;;;;;;;16.23;11.65;;;;;;;19.42;56.70;101283.38;4940006;29;20569;-89
2022/04/28 08:29:11;;;;;;;23.02;12.18;;;;;;;19.99;55.14;101280.22;4924911;29;20122;-91
2022/04/28 08:31:44;;;;;;;22.83;12.65;;;;;;;19.76;56.52;101282.44;4938530;29;20118;-90
2022/04/28 08:34:17;;;;;;;19.75;12.35;;;;;;;19.04;59.56;101285.66;4924610;29;20384;-90
2022/04/28 08:36:44;;;;;;;20.40;11.88;;;;;;;19.15;58.12;101284.28;4910147;29;20035;-87
2022/04/28 08:39:10;;;;;;;21.50;11.55;;;;;;;19.42;57.68;101277.19;4950533;29;20048;-88
2022/04/28 08:41:38;;;;;;;18.40;11.05;;;;;;;19.63;55.55;101274.34;4931608;29;20032;-88
2022/04/28 08:44:23;;;;;;;18.58;9.85;;;;;;;18.95;57.43;101275.28;4941808;29;20048;-89
2022/04/28 08:47:09;;;;;;;16.85;10.13;;;;;;;19.19;57.69;101276.66;4938568;29;20102;-88
2022/04/28 08:49:36;;;;;;;14.63;10.23;;;;;;;19.84;55.79;101281.44;4935942;29;20035;-89
2022/04/28 08:52:21;;;;;;;18.83;9.07;;;;;;;20.82;53.41;101289.53;4940276;29;20043;-88
2022/04/28 08:54:54;;;;;;;15.07;9.60;;;;;;;21.14;50.37;101290.53;4923506;29;20040;-86
2022/04/28 08:57:22;;;;;;;13.55;8.60;;;;;;;20.81;50.97;101296.00;4929444;29;20062;-87
2022/04/28 08:59:51;;;;;;;10.95;8.15;;;;;;;21.29;48.32;101292.97;4930601;29;20032;-88
2022/04/28 09:02:29;;;;;;;16.30;8.65;;;;;;;21.04;48.64;101293.66;4931115;29;20043;-88
2022/04/28 09:05:06;;;;;;;15.13;7.47;;;;;;;21.28;48.20;101294.03;4942223;29;20054;-86
2022/04/28 09:07:34;;;;;;;14.85;7.03;;;;;;;21.03;48.48;101289.28;4943469;29;20091;-86
2022/04/28 09:10:30;;;;;;;16.48;7.00;;;;;;;21.14;47.69;101283.25;4944803;29;20089;-86
2022/04/28 09:16:08;;;;;;;7.63;5.43;;;;;;;21.02;47.70;101282.25;4946768;29;20134;-88
2022/04/28 09:18:33;;;;;;;10.48;6.05;;;;;;;22.05;46.29;101286.56;4930372;29;20287;-87
2022/04/28 09:20:59;;;;;;;12.13;6.88;;;;;;;22.09;47.60;101279.69;4943977;29;20046;-86
2022/04/28 09:23:25;;;;;;;15.43;6.75;;;;;;;22.30;47.67;101294.69;4909982;29;20491;-88
2022/04/28 09:25:52;;;;;;;14.95;6.35;;;;;;;22.11;47.46;101282.97;4910330;29;20421;-83
2022/04/28 09:28:18;;;;;;;7.85;5.80;;;;;;;21.94;48.81;101287.25;4924384;29;20087;-85
2022/04/28 09:30:50;;;;;;;14.38;5.47;;;;;;;22.20;44.83;101290.81;4924266;29;20229;-83
2022/04/28 09:33:50;;;;;;;13.95;4.88;;;;;;;21.67;45.63;101283.03;4928486;29;20048;-88
2022/04/28 09:36:39;;;;;;;11.55;4.47;;;;;;;20.69;48.38;101281.47;4949563;29;20036;-88
2022/04/28 09:44:57;;;;;;;9.20;4.97;;;;;;;20.87;47.93;101276.28;4932556;29;20128;-89
2022/04/28 09:47:24;;;;;;;6.82;4.30;;;;;;;21.12;45.72;101277.25;4948710;29;20032;-90
2022/04/28 09:49:55;;;;;;;6.45;3.88;;;;;;;20.97;46.53;101290.16;4928021;29;20108;-90
2022/04/28 09:52:25;;;;;;;6.80;4.05;;;;;;;20.81;47.25;101287.91;4928156;29;20079;-89
2022/04/28 09:55:17;;;;;;;8.48;4.53;;;;;;;20.90;46.82;101289.31;4932830;29;20046;-89
2022/04/28 09:58:15;;;;;;;7.13;3.60;;;;;;;21.39;45.04;101266.38;4923030;29;20044;-87
2022/04/28 10:00:41;;;;;;;15.23;4.60;;;;;;;21.70;45.26;101274.50;4934126;29;20032;-89
2022/04/28 10:03:09;;;;;;;6.85;3.90;;;;;;;21.56;42.49;101278.31;4946412;29;20043;-90
2022/04/28 10:05:38;;;;;;;7.45;4.07;;;;;;;21.54;42.40;101275.03;4943685;29;20031;-89
2022/04/28 10:08:25;;;;;;;8.02;4.18;;;;;;;21.55;42.68;101271.25;4933747;29;20391;-90
2022/04/28 10:10:56;;;;;;;8.98;3.60;;;;;;;21.66;42.93;101273.28;4942679;29;20444;-88
2022/04/28 10:13:23;;;;;;;14.65;4.03;;;;;;;21.72;43.66;101271.59;4910573;29;20056;-89
2022/04/28 10:16:00;;;;;;;5.97;3.70;;;;;;;21.25;42.08;101278.25;4941086;29;20509;-91
2022/04/28 10:18:38;;;;;;;6.13;3.92;;;;;;;21.51;41.99;101265.47;4923342;29;20020;-91
2022/04/28 10:21:06;;;;;;;6.78;3.75;;;;;;;22.09;41.38;101263.47;4925248;29;20514;-89
2022/04/28 10:32:53;;;;;;;6.45;2.60;;;;;;;22.53;36.83;101270.59;4962421;28;20099;-86
2022/04/28 10:35:41;;;;;;;3.72;2.35;;;;;;;22.40;36.39;101265.31;4935283;28;20096;-89
2022/04/28 10:38:30;;;;;;;5.65;2.30;;;;;;;22.28;35.63;101263.53;4925072;29;20032;-89
2022/04/28 10:40:57;;;;;;;5.20;2.22;;;;;;;21.79;36.00;101272.38;4924605;29;20480;-92
2022/04/28 10:43:32;;;;;;;6.00;2.30;;;;;;;21.92;35.92;101266.91;4924521;29;20043;-90
2022/04/28 10:46:07;;;;;;;3.72;2.22;;;;;;;21.86;36.27;101267.75;4925459;29;20044;-90
2022/04/28 10:48:46;;;;;;;4.55;2.28;;;;;;;22.60;35.70;101257.00;4933524;29;20050;-89
2022/04/28 10:51:29;;;;;;;2.25;1.77;;;;;;;22.37;36.27;101260.31;4900574;29;20055;-87
2022/04/28 10:54:21;;;;;;;4.18;2.17;;;;;;;22.27;35.48;101270.00;4932859;29;20035;-87
2022/04/28 10:56:54;;;;;;;5.18;2.05;;;;;;;22.33;35.43;101247.50;4919948;28;20048;-87
2022/04/28 10:59:34;;;;;;;3.20;1.92;;;;;;;22.57;34.92;101262.88;4934238;29;20083;-86
2022/04/28 11:02:15;;;;;;;3.03;2.25;;;;;;;22.58;34.35;101246.41;4925689;29;20047;-90
2022/04/28 11:04:44;;;;;;;2.47;2.15;;;;;;;22.17;34.61;101251.59;4923986;29;20036;-87
2022/04/28 11:07:16;;;;;;;2.67;2.30;;;;;;;22.10;35.78;101258.91;4904407;29;20036;-92
2022/04/28 11:09:51;;;;;;;10.00;2.58;;;;;;;21.97;35.25;101262.53;4914239;29;20051;-91
2022/04/28 11:12:18;;;;;;;4.30;2.03;;;;;;;21.78;36.09;101243.72;4886726;29;20110;-87
2022/04/28 11:14:46;;;;;;;2.38;1.90;;;;;;;21.72;35.76;101229.25;4918754;29;20039;-86
2022/04/28 11:17:12;;;;;;;4.07;2.50;;;;;;;21.93;36.31;101237.03;4921406;29;20047;-89
2022/04/28 11:19:50;;;;;;;3.83;2.38;;;;;;;22.20;34.89;101248.44;4924175;29;20051;-83
2022/04/28 11:22:16;;;;;;;3.20;1.83;;;;;;;23.12;32.81;101237.53;4930046;29;20040;-88
2022/04/28 11:24:43;;;;;;;4.03;2.50;;;;;;;22.98;33.57;101236.03;4924488;29;20044;-89
2022/04/28 11:27:15;;;;;;;2.78;1.80;;;;;;;23.49;32.36;101237.50;4920660;29;20043;-89
2022/04/28 11:30:05;;;;;;;3.35;2.58;;;;;;;23.04;32.82;101247.81;4921427;29;20040;-88
2022/04/28 11:32:30;;;;;;;5.55;2.10;;;;;;;22.79;33.25;101247.91;4920036;29;20091;-87
2022/04/28 11:34:57;;;;;;;3.33;2.33;;;;;;;22.08;35.03;101234.81;4919501;29;20036;-87
2022/04/28 11:37:25;;;;;;;4.85;2.03;;;;;;;21.63;36.08;101246.75;4918297;29;20107;-85
2022/04/28 11:39:55;;;;;;;5.82;2.38;;;;;;;21.02;37.28;101227.50;4919044;29;20036;-89
2022/04/28 11:42:24;;;;;;;3.85;2.47;;;;;;;21.00;37.58;101218.81;4919574;29;20452;-90
2022/04/28 11:44:57;;;;;;;5.82;2.33;;;;;;;20.90;38.13;101231.91;4902948;29;20075;-89
2022/04/28 11:47:27;;;;;;;7.35;2.70;;;;;;;20.57;39.01;101229.28;4902032;29;20046;-86
2022/04/28 11:50:03;;;;;;;4.07;3.00;;;;;;;20.18;39.39;101234.69;4917933;29;20040;-87
2022/04/28 11:52:34;;;;;;;4.13;2.78;;;;;;;20.12;39.26;101230.94;4901017;29;20042;-87
2022/04/28 11:55:08;;;;;;;3.50;2.47;;;;;;;20.18;39.89;101234.69;4917277;29;20210;-86
2022/04/28 11:57:39;;;;;;;4.20;2.38;;;;;;;20.41;39.48;101237.81;4918963;29;20040;-90
2022/04/28 12:00:12;;;;;;;3.03;2.03;;;;;;;20.54;39.07;101240.50;4918189;29;20100;-88
2022/04/28 12:02:38;;;;;;;4.15;2.58;;;;;;;20.41;39.18;101225.19;4902805;29;20453;-89
2022/04/28 12:05:19;;;;;;;5.00;2.53;;;;;;;20.32;39.32;101225.59;4923399;29;20432;-90
2022/04/28 12:07:51;;;;;;;5.60;2.60;;;;;;;20.10;39.82;101222.28;4906096;29;20583;-88